Time;durP1;ratioP1;P1;durP2;ratioP2;P2;SDS_P1;SDS_P2;PMS_P1;PMS_P2;Temp;Humidity;BMP_temperature;BMP_pressure;BME280_temperature;BME280_humidity;BME280_pressure;Samples;Min_cycle;Max_cycle;Signal;HPM_P1;HPM_P2
2021/05/01 00:00:45;;;;;;;5.38;4.80;;;7.80;99.90;;;;;;4898918;29;20481;-79
2021/05/01 00:03:11;;;;;;;4.40;4.00;;;7.80;99.90;;;;;;4899026;29;20404;-79
2021/05/01 00:05:36;;;;;;;4.63;4.23;;;7.70;99.90;;;;;;4915645;28;20409;-79
2021/05/01 00:08:02;;;;;;;6.15;4.32;;;7.70;99.90;;;;;;4908329;29;20917;-79
2021/05/01 00:10:29;;;;;;;5.17;4.70;;;7.60;99.90;;;;;;4916959;29;20410;-79
2021/05/01 00:12:54;;;;;;;5.18;4.57;;;7.60;99.90;;;;;;4904620;29;20948;-79
2021/05/01 00:15:20;;;;;;;4.97;4.40;;;7.60;99.90;;;;;;4919441;29;20385;-78
2021/05/01 00:17:45;;;;;;;7.63;4.60;;;7.60;99.90;;;;;;4907296;29;20422;-78
2021/05/01 00:20:12;;;;;;;5.85;4.55;;;7.60;99.90;;;;;;4907784;29;20400;-78
2021/05/01 00:22:38;;;;;;;5.00;4.50;;;7.60;99.90;;;;;;4924355;29;20414;-78
2021/05/01 00:25:04;;;;;;;4.70;4.30;;;7.60;99.90;;;;;;4911071;29;20454;-78
2021/05/01 00:27:30;;;;;;;6.82;4.57;;;7.60;99.90;;;;;;4904293;29;20400;-78
2021/05/01 00:29:56;;;;;;;5.28;4.78;;;7.60;99.90;;;;;;4921990;29;20553;-80
2021/05/01 00:32:21;;;;;;;6.10;5.43;;;7.60;99.90;;;;;;4906871;29;20402;-79
2021/05/01 00:34:47;;;;;;;5.43;4.82;;;7.60;99.90;;;;;;4891936;29;20415;-78
2021/05/01 00:37:12;;;;;;;5.93;5.00;;;7.60;99.90;;;;;;4905567;29;20544;-79
2021/05/01 00:39:38;;;;;;;6.17;5.27;;;7.50;99.90;;;;;;4892318;29;20447;-78
2021/05/01 00:42:04;;;;;;;5.70;5.20;;;7.50;99.90;;;;;;4887753;29;20909;-80
2021/05/01 00:44:30;;;;;;;6.13;5.23;;;7.50;99.90;;;;;;4920364;29;20911;-79
2021/05/01 00:46:55;;;;;;;5.97;5.43;;;7.50;99.90;;;;;;4887049;29;21675;-79
2021/05/01 00:49:21;;;;;;;5.88;4.80;;;7.50;99.90;;;;;;4919313;29;20422;-78
2021/05/01 00:51:46;;;;;;;5.33;4.83;;;7.40;99.90;;;;;;4915186;29;20859;-78
2021/05/01 00:54:12;;;;;;;5.05;4.65;;;7.50;99.90;;;;;;4918237;29;20778;-79
2021/05/01 00:56:38;;;;;;;6.07;5.50;;;7.50;99.90;;;;;;4913121;29;20411;-78
2021/05/01 00:59:03;;;;;;;6.22;4.78;;;7.50;99.90;;;;;;4900904;29;20739;-79
2021/05/01 01:01:30;;;;;;;6.22;5.40;;;7.40;99.90;;;;;;4912407;29;20393;-79
2021/05/01 01:03:55;;;;;;;5.82;5.22;;;7.40;99.90;;;;;;4879910;29;20410;-79
2021/05/01 01:06:21;;;;;;;6.17;5.57;;;7.50;99.90;;;;;;4917413;29;20404;-78
2021/05/01 01:08:46;;;;;;;7.15;6.40;;;7.50;99.90;;;;;;4910178;29;20438;-78
2021/05/01 01:11:12;;;;;;;6.10;5.50;;;7.50;99.90;;;;;;4888296;29;20400;-79
2021/05/01 01:13:38;;;;;;;7.60;6.00;;;7.40;99.90;;;;;;4905377;29;20410;-78
2021/05/01 01:16:04;;;;;;;6.05;5.43;;;7.30;99.90;;;;;;4905040;29;20421;-78
2021/05/01 01:18:30;;;;;;;5.72;5.10;;;7.30;99.90;;;;;;4925422;29;21122;-78
2021/05/01 01:20:59;;;;;;;6.10;5.50;;;7.30;99.90;;;;;;4901358;29;20459;-79
2021/05/01 01:23:25;;;;;;;6.43;5.65;;;7.40;99.90;;;;;;4903841;29;20415;-79
2021/05/01 01:25:51;;;;;;;6.05;5.45;;;7.30;99.90;;;;;;4897916;29;20802;-79
2021/05/01 01:28:16;;;;;;;6.40;5.80;;;7.40;99.90;;;;;;4905744;29;20804;-78
2021/05/01 01:30:42;;;;;;;6.18;5.57;;;7.40;99.90;;;;;;4902771;29;20398;-79
2021/05/01 01:33:09;;;;;;;5.77;5.20;;;7.40;99.90;;;;;;4906141;29;20408;-79
2021/05/01 01:35:35;;;;;;;6.13;5.53;;;7.50;99.90;;;;;;4901670;28;20401;-79
2021/05/01 01:38:01;;;;;;;6.00;5.32;;;7.50;99.90;;;;;;4902985;29;20435;-79
2021/05/01 01:40:27;;;;;;;5.83;5.33;;;7.40;99.90;;;;;;4906237;29;20396;-79
2021/05/01 01:42:53;;;;;;;6.20;5.60;;;7.50;99.90;;;;;;4902958;29;21038;-78
2021/05/01 01:45:23;;;;;;;5.93;5.30;;;7.40;99.90;;;;;;4901720;29;20977;-78
2021/05/01 01:47:49;;;;;;;6.25;5.65;;;7.40;99.90;;;;;;4915879;29;20407;-79
2021/05/01 01:50:16;;;;;;;6.80;5.80;;;7.30;99.90;;;;;;4903373;29;20791;-79
2021/05/01 01:52:41;;;;;;;6.80;5.83;;;7.30;99.90;;;;;;4913288;29;20411;-78
2021/05/01 01:55:09;;;;;;;6.87;5.47;;;7.30;99.90;;;;;;4881810;29;20499;-79
2021/05/01 01:57:35;;;;;;;7.03;5.80;;;7.30;99.90;;;;;;4912732;29;20428;-78
2021/05/01 02:00:00;;;;;;;6.10;5.53;;;7.30;99.90;;;;;;4886317;29;20407;-78
2021/05/01 02:02:27;;;;;;;6.70;5.97;;;7.30;99.90;;;;;;4922718;29;20921;-79
2021/05/01 02:04:53;;;;;;;6.07;5.47;;;7.30;99.90;;;;;;4904293;29;20710;-78
2021/05/01 02:07:18;;;;;;;6.67;5.93;;;7.30;99.90;;;;;;4918095;29;20430;-79
2021/05/01 02:09:44;;;;;;;6.70;6.00;;;7.30;99.90;;;;;;4914713;29;20515;-79
2021/05/01 02:12:10;;;;;;;6.47;5.88;;;7.30;99.90;;;;;;4896529;29;20414;-78
2021/05/01 02:14:35;;;;;;;6.17;5.57;;;7.30;99.90;;;;;;4891786;29;20398;-78
2021/05/01 02:17:01;;;;;;;6.80;6.13;;;7.30;99.90;;;;;;4913590;29;20424;-78
2021/05/01 02:19:27;;;;;;;7.37;6.57;;;7.30;99.90;;;;;;4923758;29;20979;-79
2021/05/01 02:21:52;;;;;;;6.53;5.93;;;7.20;99.90;;;;;;4899786;29;20501;-79
2021/05/01 02:24:18;;;;;;;7.30;6.55;;;7.30;99.90;;;;;;4916488;29;21053;-78
2021/05/01 02:26:44;;;;;;;6.93;6.07;;;7.30;99.90;;;;;;4918239;29;20910;-79
2021/05/01 02:29:09;;;;;;;6.78;5.95;;;7.20;99.90;;;;;;4910447;29;21000;-79
2021/05/01 02:31:35;;;;;;;6.77;5.87;;;7.20;99.90;;;;;;4932686;29;20421;-79
2021/05/01 02:34:01;;;;;;;9.00;6.67;;;7.10;99.90;;;;;;4894579;29;20417;-78
2021/05/01 02:36:26;;;;;;;7.50;5.78;;;7.10;99.90;;;;;;4915456;29;20487;-78
2021/05/01 02:38:52;;;;;;;6.43;5.73;;;7.10;99.90;;;;;;4896402;29;20395;-78
2021/05/01 02:41:18;;;;;;;5.97;5.38;;;7.20;99.90;;;;;;4912489;29;20543;-79
2021/05/01 02:43:44;;;;;;;6.70;5.75;;;7.20;99.90;;;;;;4913530;29;20409;-78
2021/05/01 02:46:09;;;;;;;6.50;5.90;;;7.30;99.90;;;;;;4913180;29;20406;-79
2021/05/01 02:48:35;;;;;;;7.20;6.30;;;7.30;99.90;;;;;;4914927;29;20524;-79
2021/05/01 02:51:00;;;;;;;6.97;6.28;;;7.20;99.90;;;;;;4898519;29;20391;-78
2021/05/01 02:53:26;;;;;;;6.13;5.57;;;7.20;99.90;;;;;;4896222;29;20404;-79
2021/05/01 02:55:52;;;;;;;9.13;6.03;;;7.30;99.90;;;;;;4882317;29;20407;-79
2021/05/01 02:58:17;;;;;;;7.17;6.00;;;7.30;99.90;;;;;;4910313;29;20935;-79
2021/05/01 03:00:43;;;;;;;6.77;5.80;;;7.30;99.90;;;;;;4932403;29;20834;-79
2021/05/01 03:03:09;;;;;;;7.15;6.45;;;7.30;99.90;;;;;;4885937;29;20391;-79
2021/05/01 03:05:34;;;;;;;7.23;6.53;;;7.30;99.90;;;;;;4897658;29;20400;-78
2021/05/01 03:08:00;;;;;;;7.85;6.72;;;7.20;99.90;;;;;;4901883;29;20415;-79
2021/05/01 03:10:26;;;;;;;6.70;6.00;;;7.20;99.90;;;;;;4915457;29;20403;-79
2021/05/01 03:12:52;;;;;;;6.97;6.30;;;7.10;99.90;;;;;;4899750;29;20412;-79
2021/05/01 03:15:18;;;;;;;6.50;5.85;;;7.10;99.90;;;;;;4896379;29;20399;-78
2021/05/01 03:17:44;;;;;;;6.87;6.17;;;7.10;99.90;;;;;;4902423;29;20428;-78
2021/05/01 03:20:10;;;;;;;7.27;6.40;;;7.20;99.90;;;;;;4902612;29;20880;-79
2021/05/01 03:22:36;;;;;;;7.93;6.40;;;7.10;99.90;;;;;;4935492;29;20495;-78
2021/05/01 03:25:03;;;;;;;10.47;6.70;;;7.10;99.90;;;;;;4901362;29;20491;-78
2021/05/01 03:27:29;;;;;;;6.57;5.97;;;7.10;99.90;;;;;;4915226;29;20411;-80
2021/05/01 03:29:55;;;;;;;7.15;6.45;;;7.10;99.90;;;;;;4899963;29;20410;-78
2021/05/01 03:32:20;;;;;;;7.45;6.75;;;7.00;99.90;;;;;;4885494;29;20405;-79
2021/05/01 03:34:46;;;;;;;7.90;7.10;;;7.00;99.90;;;;;;4917153;29;20404;-78
2021/05/01 03:37:11;;;;;;;9.50;6.88;;;7.00;99.90;;;;;;4914854;29;20414;-79
2021/05/01 03:39:37;;;;;;;8.60;7.70;;;7.00;99.90;;;;;;4919667;29;20402;-79
2021/05/01 03:42:03;;;;;;;7.55;6.80;;;7.00;99.90;;;;;;4915737;29;20406;-78
2021/05/01 03:44:29;;;;;;;9.23;7.03;;;7.00;99.90;;;;;;4938576;29;20401;-78
2021/05/01 03:46:55;;;;;;;6.53;5.90;;;7.00;99.90;;;;;;4883869;29;20459;-79
2021/05/01 03:49:20;;;;;;;7.83;7.03;;;7.00;99.90;;;;;;4921740;29;20473;-79
2021/05/01 03:51:46;;;;;;;8.18;6.68;;;7.00;99.90;;;;;;4905278;29;20434;-78
2021/05/01 03:54:12;;;;;;;8.00;7.20;;;7.00;99.90;;;;;;4918628;29;20491;-79
2021/05/01 03:56:37;;;;;;;7.60;6.80;;;7.00;99.90;;;;;;4913328;29;20417;-78
2021/05/01 03:59:03;;;;;;;7.65;6.85;;;7.00;99.90;;;;;;4902275;29;20420;-78
2021/05/01 04:01:29;;;;;;;7.47;6.78;;;7.00;99.90;;;;;;4924799;29;20397;-78
2021/05/01 04:03:54;;;;;;;8.23;7.37;;;7.00;99.90;;;;;;4914206;29;20411;-79
2021/05/01 04:06:20;;;;;;;7.85;7.05;;;7.10;99.90;;;;;;4918896;29;20407;-78
2021/05/01 04:08:46;;;;;;;7.50;6.80;;;7.10;99.90;;;;;;4900749;29;20407;-78
2021/05/01 04:11:12;;;;;;;7.97;7.17;;;7.10;99.90;;;;;;4920013;29;20418;-79
2021/05/01 04:13:47;;;;;;;8.90;7.20;;;7.10;99.90;;;;;;4901257;29;20463;-78
2021/05/01 04:16:16;;;;;;;9.50;7.93;;;7.10;99.90;;;;;;4894677;29;20935;-78
2021/05/01 04:18:42;;;;;;;8.93;7.32;;;7.10;99.90;;;;;;4919036;29;20514;-79
2021/05/01 04:21:07;;;;;;;8.55;7.60;;;7.10;99.90;;;;;;4915937;29;20403;-79
2021/05/01 04:23:33;;;;;;;8.20;7.40;;;7.20;99.90;;;;;;4900360;29;20388;-78
2021/05/01 04:25:59;;;;;;;8.30;7.50;;;7.20;99.90;;;;;;4914495;29;20399;-78
2021/05/01 04:28:24;;;;;;;9.10;7.40;;;7.20;99.90;;;;;;4917444;29;20410;-78
2021/05/01 04:30:50;;;;;;;8.63;7.63;;;7.20;99.90;;;;;;4929345;29;20401;-79
2021/05/01 04:33:16;;;;;;;8.65;7.55;;;7.30;99.90;;;;;;4896889;29;20450;-79
2021/05/01 04:35:41;;;;;;;9.53;7.50;;;7.30;99.90;;;;;;4915824;28;20756;-79
2021/05/01 04:38:07;;;;;;;7.97;7.13;;;7.30;99.90;;;;;;4919982;29;20848;-78
2021/05/01 04:40:33;;;;;;;9.73;8.18;;;7.30;99.90;;;;;;4917812;29;20470;-79
2021/05/01 04:43:04;;;;;;;9.33;7.63;;;7.40;99.90;;;;;;4891050;29;20445;-78
2021/05/01 04:45:29;;;;;;;9.00;8.07;;;7.40;99.90;;;;;;4901020;28;20420;-77
2021/05/01 04:47:55;;;;;;;9.57;7.70;;;7.30;99.90;;;;;;4897376;29;20486;-78
2021/05/01 04:50:21;;;;;;;10.97;7.93;;;7.50;99.90;;;;;;4904096;29;20510;-78
2021/05/01 04:52:46;;;;;;;8.32;7.45;;;7.40;99.90;;;;;;4917722;29;20404;-79
2021/05/01 04:55:15;;;;;;;8.70;7.90;;;7.50;99.90;;;;;;4896820;29;20414;-78
2021/05/01 04:57:42;;;;;;;9.40;8.02;;;7.50;99.90;;;;;;4915711;29;20416;-79
2021/05/01 05:00:08;;;;;;;8.00;7.20;;;7.50;99.90;;;;;;4920660;29;20433;-79
2021/05/01 05:02:34;;;;;;;10.05;8.50;;;7.50;99.90;;;;;;4899001;29;20415;-79
2021/05/01 05:04:59;;;;;;;8.55;7.60;;;7.50;99.90;;;;;;4919468;29;20479;-78
2021/05/01 05:07:25;;;;;;;9.30;7.63;;;7.60;99.90;;;;;;4883075;29;20415;-78
2021/05/01 05:09:52;;;;;;;8.00;7.07;;;7.60;99.90;;;;;;4898255;29;20431;-79
2021/05/01 05:12:17;;;;;;;8.65;7.78;;;7.60;99.90;;;;;;4901136;29;20403;-78
2021/05/01 05:14:43;;;;;;;10.68;8.40;;;7.70;99.90;;;;;;4915361;29;20403;-78
2021/05/01 05:17:08;;;;;;;8.73;7.60;;;7.70;99.90;;;;;;4898266;29;20419;-79
2021/05/01 05:19:34;;;;;;;8.93;7.53;;;7.80;99.90;;;;;;4903237;29;20553;-79
2021/05/01 05:22:00;;;;;;;10.65;7.82;;;7.90;99.90;;;;;;4896337;29;20411;-79
2021/05/01 05:24:25;;;;;;;9.97;8.00;;;7.90;99.90;;;;;;4914736;29;20404;-78
2021/05/01 05:26:51;;;;;;;9.32;7.88;;;8.00;99.90;;;;;;4914678;29;20405;-79
2021/05/01 05:29:16;;;;;;;10.17;8.27;;;8.00;99.90;;;;;;4878251;29;20435;-79
2021/05/01 05:31:44;;;;;;;8.73;7.82;;;8.10;99.90;;;;;;4914005;29;21125;-79
2021/05/01 05:34:09;;;;;;;9.00;8.10;;;8.00;99.90;;;;;;4915214;29;20407;-79
2021/05/01 05:36:35;;;;;;;9.57;7.73;;;8.10;99.90;;;;;;4897867;29;20431;-79
2021/05/01 05:39:02;;;;;;;8.03;7.20;;;8.10;99.90;;;;;;4900619;29;20402;-79
2021/05/01 05:41:28;;;;;;;10.00;8.43;;;8.10;99.90;;;;;;4911984;29;20924;-78
2021/05/01 05:43:54;;;;;;;11.27;8.33;;;8.20;99.90;;;;;;4912839;29;20520;-79
2021/05/01 05:46:20;;;;;;;9.50;8.00;;;8.20;99.90;;;;;;4896406;29;20463;-78
2021/05/01 05:48:45;;;;;;;8.55;7.18;;;8.20;99.90;;;;;;4916442;29;20397;-79
2021/05/01 05:51:11;;;;;;;9.37;8.30;;;8.30;99.90;;;;;;4912717;29;20761;-79
2021/05/01 05:53:37;;;;;;;8.60;7.65;;;8.40;99.90;;;;;;4916017;29;20446;-78
2021/05/01 05:56:02;;;;;;;10.50;8.33;;;8.40;99.90;;;;;;4928159;29;20491;-78
2021/05/01 05:58:28;;;;;;;8.68;7.88;;;8.50;99.90;;;;;;4920315;29;20403;-79
2021/05/01 06:00:54;;;;;;;10.18;7.68;;;8.60;99.90;;;;;;4897749;29;20834;-78
2021/05/01 06:03:20;;;;;;;10.77;7.87;;;8.70;99.90;;;;;;4914822;29;20396;-78
2021/05/01 06:05:48;;;;;;;9.05;7.97;;;8.70;99.90;;;;;;4914099;29;21013;-77
2021/05/01 06:08:13;;;;;;;12.30;7.80;;;8.80;99.90;;;;;;4883478;29;20408;-78
2021/05/01 06:10:39;;;;;;;7.95;7.15;;;8.80;99.90;;;;;;4898523;29;20396;-78
2021/05/01 06:13:05;;;;;;;8.73;7.83;;;8.80;99.90;;;;;;4915300;29;20387;-78
2021/05/01 06:15:31;;;;;;;7.90;6.80;;;8.80;99.90;;;;;;4912638;28;20419;-78
2021/05/01 06:17:59;;;;;;;8.52;7.70;;;8.80;99.90;;;;;;4899580;29;20467;-78
2021/05/01 06:20:26;;;;;;;8.43;7.40;;;8.80;99.90;;;;;;4910467;29;20409;-78
2021/05/01 06:22:51;;;;;;;9.18;7.93;;;8.90;99.90;;;;;;4896362;29;20413;-78
2021/05/01 06:25:17;;;;;;;10.13;8.43;;;9.00;99.90;;;;;;4895654;29;20423;-78
2021/05/01 06:27:43;;;;;;;8.55;7.63;;;9.00;99.90;;;;;;4896538;29;20605;-77
2021/05/01 06:30:10;;;;;;;8.65;7.68;;;9.10;99.90;;;;;;4904075;29;20408;-78
2021/05/01 06:32:35;;;;;;;8.50;7.65;;;9.10;99.90;;;;;;4896984;29;20421;-78
2021/05/01 06:35:01;;;;;;;9.03;8.13;;;9.10;99.90;;;;;;4898925;29;20399;-79
2021/05/01 06:37:27;;;;;;;9.55;7.95;;;9.10;99.90;;;;;;4896033;29;21012;-78
2021/05/01 06:39:55;;;;;;;10.65;8.18;;;9.20;99.90;;;;;;4898781;29;20865;-77
2021/05/01 06:42:29;;;;;;;9.70;8.07;;;9.20;99.90;;;;;;4897327;29;20426;-78
2021/05/01 06:45:07;;;;;;;10.95;8.75;;;9.20;99.90;;;;;;4924755;29;21281;-78
2021/05/01 06:47:33;;;;;;;10.75;7.95;;;9.20;99.90;;;;;;4925177;29;20470;-77
2021/05/01 06:50:09;;;;;;;8.90;8.00;;;9.20;99.90;;;;;;4890108;29;20433;-79
2021/05/01 06:52:39;;;;;;;11.40;9.18;;;9.20;99.90;;;;;;4910741;29;20748;-78
2021/05/01 06:55:05;;;;;;;10.65;8.88;;;9.30;99.90;;;;;;4891769;29;20584;-78
2021/05/01 06:57:30;;;;;;;10.45;8.68;;;9.30;99.90;;;;;;4911023;29;20490;-79
2021/05/01 06:59:58;;;;;;;10.82;8.77;;;9.40;99.90;;;;;;4893875;29;20487;-79
2021/05/01 07:02:28;;;;;;;9.27;8.27;;;9.50;99.90;;;;;;4897937;29;20418;-78
2021/05/01 07:04:57;;;;;;;9.68;7.88;;;9.60;99.90;;;;;;4898961;29;20424;-78
2021/05/01 07:07:23;;;;;;;9.65;8.57;;;9.70;99.90;;;;;;4915573;29;20427;-79
2021/05/01 07:09:49;;;;;;;11.20;8.65;;;9.80;99.90;;;;;;4913251;29;20415;-79
2021/05/01 07:12:15;;;;;;;9.85;8.13;;;9.80;99.90;;;;;;4913045;29;20430;-78
2021/05/01 07:14:41;;;;;;;9.97;8.47;;;9.90;99.90;;;;;;4898322;29;20491;-80
2021/05/01 07:17:07;;;;;;;11.75;10.48;;;10.00;99.90;;;;;;4897208;29;20422;-80
2021/05/01 07:19:33;;;;;;;12.15;10.88;;;10.10;99.90;;;;;;4900333;29;20466;-79
2021/05/01 07:21:59;;;;;;;10.65;9.02;;;10.20;99.90;;;;;;4898884;29;20406;-79
2021/05/01 07:24:26;;;;;;;12.63;9.67;;;10.20;99.90;;;;;;4898045;29;20420;-78
2021/05/01 07:26:54;;;;;;;10.27;9.25;;;10.30;99.90;;;;;;4931374;28;20448;-79
2021/05/01 07:29:49;;;;;;;12.55;9.95;;;10.40;99.90;;;;;;4905482;29;20453;-79
2021/05/01 07:32:15;;;;;;;11.80;8.90;;;10.60;99.90;;;;;;4899578;29;20487;-79
2021/05/01 07:34:50;;;;;;;12.70;9.38;;;10.70;99.90;;;;;;4881784;29;20485;-80
2021/05/01 07:37:18;;;;;;;10.02;9.02;;;10.90;99.90;;;;;;4901509;29;20458;-78
2021/05/01 07:39:47;;;;;;;10.45;9.23;;;10.90;99.90;;;;;;4916167;29;20479;-78
2021/05/01 07:42:12;;;;;;;9.63;8.45;;;11.10;99.90;;;;;;4894228;29;20402;-79
2021/05/01 07:44:38;;;;;;;11.47;10.27;;;11.10;99.90;;;;;;4884790;29;20415;-79
2021/05/01 07:47:04;;;;;;;12.23;9.27;;;11.20;99.90;;;;;;4902065;29;20410;-79
2021/05/01 07:49:29;;;;;;;12.73;10.57;;;11.20;99.90;;;;;;4906685;29;20964;-79
2021/05/01 07:51:55;;;;;;;13.68;10.98;;;11.40;99.90;;;;;;4886220;29;20802;-78
2021/05/01 07:54:21;;;;;;;14.73;10.68;;;11.50;99.90;;;;;;4902478;29;20449;-79
2021/05/01 07:56:47;;;;;;;13.33;10.83;;;11.50;99.90;;;;;;4918142;29;20775;-78
2021/05/01 07:59:12;;;;;;;13.13;10.88;;;11.50;99.90;;;;;;4903820;29;20398;-79
2021/05/01 08:01:38;;;;;;;14.90;11.00;;;11.60;99.90;;;;;;4914954;29;20397;-78
2021/05/01 08:04:04;;;;;;;11.98;9.95;;;11.70;99.90;;;;;;4900934;29;20431;-79
2021/05/01 08:06:29;;;;;;;9.90;8.90;;;11.80;99.90;;;;;;4884849;29;20419;-79
2021/05/01 08:08:55;;;;;;;9.97;8.93;;;12.00;99.90;;;;;;4891729;29;20415;-79
2021/05/01 08:11:21;;;;;;;13.90;9.88;;;12.20;99.90;;;;;;4937717;29;20428;-79
2021/05/01 08:13:47;;;;;;;10.60;8.93;;;12.30;99.90;;;;;;4934030;29;20936;-79
2021/05/01 08:16:16;;;;;;;12.07;9.70;;;12.50;99.90;;;;;;4915441;29;20388;-79
2021/05/01 08:18:42;;;;;;;12.40;9.27;;;12.60;99.90;;;;;;4888103;29;20422;-79
2021/05/01 08:21:08;;;;;;;11.52;10.02;;;12.80;99.90;;;;;;4922297;29;20438;-79
2021/05/01 08:23:34;;;;;;;12.75;9.85;;;13.00;99.90;;;;;;4891588;29;20427;-79
2021/05/01 08:26:03;;;;;;;10.45;8.98;;;12.90;99.90;;;;;;4915821;29;20776;-79
2021/05/01 08:28:29;;;;;;;8.82;7.93;;;13.00;99.90;;;;;;4903977;29;20452;-78
2021/05/01 08:30:55;;;;;;;11.32;8.30;;;13.20;99.90;;;;;;4917289;29;20462;-79
2021/05/01 08:33:20;;;;;;;11.30;8.60;;;13.40;99.90;;;;;;4914721;29;21126;-79
2021/05/01 08:35:46;;;;;;;8.43;7.50;;;13.60;99.90;;;;;;4904870;28;20736;-79
2021/05/01 08:38:12;;;;;;;9.87;8.23;;;13.70;99.90;;;;;;4902910;29;20435;-79
2021/05/01 08:40:37;;;;;;;7.85;7.05;;;13.80;99.90;;;;;;4907204;29;20825;-80
2021/05/01 08:43:03;;;;;;;6.73;5.57;;;14.00;99.90;;;;;;4898426;29;20401;-79
2021/05/01 08:45:31;;;;;;;8.27;7.00;;;14.10;99.90;;;;;;4898575;29;20815;-81
2021/05/01 08:47:57;;;;;;;6.45;5.85;;;14.10;99.90;;;;;;4914875;29;20403;-80
2021/05/01 08:50:25;;;;;;;8.85;7.10;;;14.30;99.90;;;;;;4903899;29;20409;-79
2021/05/01 08:52:54;;;;;;;9.60;7.93;;;14.70;99.90;;;;;;4931794;29;20406;-79
2021/05/01 08:55:23;;;;;;;7.80;7.03;;;14.60;99.90;;;;;;4901606;29;20491;-80
2021/05/01 08:57:49;;;;;;;11.02;8.40;;;14.70;99.90;;;;;;4909126;29;20468;-79
2021/05/01 09:00:15;;;;;;;10.77;7.40;;;14.70;99.90;;;;;;4885426;29;20404;-80
2021/05/01 09:02:41;;;;;;;9.75;7.68;;;14.40;99.90;;;;;;4920169;29;20408;-79
2021/05/01 09:05:10;;;;;;;8.43;6.30;;;14.20;99.90;;;;;;4905051;29;20504;-80
2021/05/01 09:08:09;;;;;;;8.50;6.70;;;14.60;99.90;;;;;;4910892;29;20404;-80
2021/05/01 09:11:30;;;;;;;6.80;6.20;;;15.00;99.90;;;;;;4909168;28;20403;-81
2021/05/01 09:15:44;;;;;;;6.72;5.57;;;15.40;99.90;;;;;;4948141;29;20399;-81
2021/05/01 09:20:14;;;;;;;5.28;4.10;;;15.70;99.90;;;;;;4856119;29;20508;-81
2021/05/01 09:23:36;;;;;;;6.18;4.88;;;16.40;99.90;;;;;;4922995;23;20977;-74
2021/05/01 09:26:02;;;;;;;5.57;4.85;;;16.80;99.90;;;;;;4934839;29;20419;-78
2021/05/01 09:28:38;;;;;;;5.53;5.03;;;16.90;99.90;;;;;;4916453;29;20777;-74
2021/05/01 09:31:08;;;;;;;7.10;6.37;;;17.00;99.90;;;;;;4920886;29;21871;-77
2021/05/01 09:33:44;;;;;;;6.15;5.40;;;16.40;99.90;;;;;;4924040;29;20943;-78
2021/05/01 09:36:13;;;;;;;5.93;5.40;;;16.20;99.90;;;;;;4910601;29;20432;-78
2021/05/01 09:38:57;;;;;;;5.27;4.83;;;16.00;99.90;;;;;;4907072;29;20419;-77
2021/05/01 09:41:26;;;;;;;4.80;4.38;;;15.80;99.90;;;;;;4935791;29;20931;-80
2021/05/01 09:44:08;;;;;;;5.10;4.60;;;15.90;99.90;;;;;;4924692;29;20491;-78
2021/05/01 09:46:37;;;;;;;4.37;3.67;;;16.30;99.90;;;;;;4919932;29;21179;-77
2021/05/01 09:49:15;;;;;;;5.70;4.70;;;16.70;99.90;;;;;;4942087;29;20463;-77
2021/05/01 09:51:49;;;;;;;4.50;4.10;;;17.10;99.90;;;;;;4918181;29;20411;-78
2021/05/01 09:54:26;;;;;;;5.38;4.40;;;17.10;99.90;;;;;;4923837;29;20565;-76
2021/05/01 09:56:52;;;;;;;5.03;4.50;;;17.00;99.90;;;;;;4926395;29;20429;-79
2021/05/01 09:59:18;;;;;;;4.75;4.28;;;16.90;99.90;;;;;;4925437;29;20453;-78
2021/05/01 10:01:55;;;;;;;5.60;4.82;;;16.60;99.90;;;;;;4911423;29;20755;-79
2021/05/01 10:04:21;;;;;;;5.75;5.15;;;16.40;99.90;;;;;;4924152;29;21070;-79
2021/05/01 10:07:12;;;;;;;5.47;4.63;;;16.60;99.90;;;;;;4909376;29;20411;-78
2021/05/01 10:09:39;;;;;;;5.60;4.55;;;16.80;99.90;;;;;;4898349;29;20409;-79
2021/05/01 10:12:14;;;;;;;5.07;4.22;;;16.90;99.90;;;;;;4924242;29;20467;-80
2021/05/01 10:14:40;;;;;;;5.30;4.20;;;16.90;99.90;;;;;;4895241;29;20406;-79
2021/05/01 10:17:06;;;;;;;4.30;3.90;;;17.10;99.90;;;;;;4908725;29;20925;-82
2021/05/01 10:20:00;;;;;;;4.33;3.83;;;17.10;99.90;;;;;;4922400;29;20409;-79
2021/05/01 10:22:37;;;;;;;4.50;3.20;;;17.20;99.90;;;;;;4929827;29;20493;-75
2021/05/01 10:25:03;;;;;;;4.85;3.85;;;17.10;99.90;;;;;;4912562;29;20403;-77
2021/05/01 10:27:29;;;;;;;3.20;2.90;;;16.90;99.90;;;;;;4945981;29;20762;-77
2021/05/01 10:30:08;;;;;;;3.50;3.20;;;16.90;99.90;;;;;;4900459;29;20407;-77
2021/05/01 10:32:41;;;;;;;3.65;3.35;;;16.80;99.90;;;;;;4913296;29;20415;-77
2021/05/01 10:35:07;;;;;;;3.70;3.40;;;16.90;99.90;;;;;;4915293;29;20405;-76
2021/05/01 10:37:34;;;;;;;4.10;3.70;;;16.60;99.90;;;;;;4910772;29;20410;-78
2021/05/01 10:39:59;;;;;;;4.78;3.90;;;16.60;99.90;;;;;;4907056;29;20408;-76
2021/05/01 10:42:25;;;;;;;4.80;3.63;;;16.40;99.90;;;;;;4909534;29;20813;-76
2021/05/01 10:44:57;;;;;;;4.13;3.77;;;16.40;99.90;;;;;;4900265;29;20409;-78
2021/05/01 10:47:23;;;;;;;4.93;4.22;;;16.90;99.90;;;;;;4924085;29;20501;-79
2021/05/01 10:49:49;;;;;;;4.95;4.15;;;17.60;99.90;;;;;;4943884;29;21249;-79
2021/05/01 10:52:16;;;;;;;4.93;3.80;;;18.30;99.90;;;;;;4930695;29;20402;-80
2021/05/01 10:55:02;;;;;;;5.28;3.85;;;18.90;99.90;;;;;;4924075;29;20425;-80
2021/05/01 10:57:28;;;;;;;4.63;4.10;;;19.00;99.90;;;;;;4898511;29;20416;-75
2021/05/01 11:00:03;;;;;;;4.13;3.72;;;19.10;99.90;;;;;;4916997;28;20404;-77
2021/05/01 11:02:37;;;;;;;4.40;4.00;;;19.10;99.90;;;;;;4910076;29;20532;-78
2021/05/01 11:05:06;;;;;;;4.20;3.70;;;19.60;99.90;;;;;;4894665;29;20406;-78
2021/05/01 11:08:03;;;;;;;4.83;4.10;;;19.70;99.90;;;;;;4904088;29;20467;-77
2021/05/01 11:10:29;;;;;;;4.50;4.10;;;19.70;99.90;;;;;;4891267;29;20409;-78
2021/05/01 11:12:55;;;;;;;4.10;3.70;;;19.30;99.90;;;;;;4908360;29;20437;-77
2021/05/01 11:15:22;;;;;;;4.55;4.15;;;19.10;99.90;;;;;;4900742;29;20406;-79
2021/05/01 11:18:04;;;;;;;4.90;4.30;;;18.80;99.90;;;;;;4910341;29;20420;-77
2021/05/01 11:20:30;;;;;;;4.40;4.00;;;18.60;99.90;;;;;;4925459;29;20477;-82
2021/05/01 11:22:56;;;;;;;5.50;3.97;;;18.50;99.90;;;;;;4910201;29;20915;-81
2021/05/01 11:25:22;;;;;;;4.30;3.90;;;18.40;99.90;;;;;;4918929;29;20432;-82
2021/05/01 11:27:50;;;;;;;4.55;4.07;;;18.40;99.90;;;;;;4898726;29;20403;-82
2021/05/01 11:30:20;;;;;;;4.07;3.75;;;18.20;99.90;;;;;;4907268;29;20403;-83
2021/05/01 11:32:46;;;;;;;4.55;4.00;;;18.10;99.90;;;;;;4926182;29;20400;-83
2021/05/01 11:35:13;;;;;;;4.45;4.05;;;18.20;99.90;;;;;;4913545;29;20494;-83
2021/05/01 11:37:49;;;;;;;4.00;3.50;;;18.30;99.90;;;;;;4906080;29;20459;-82
2021/05/01 11:40:16;;;;;;;4.00;3.60;;;18.30;99.90;;;;;;4919355;29;20400;-82
2021/05/01 11:42:43;;;;;;;3.83;3.53;;;18.50;99.90;;;;;;4893501;29;20435;-82
2021/05/01 11:45:16;;;;;;;3.95;3.55;;;18.60;99.90;;;;;;4907629;29;20421;-82
2021/05/01 11:47:48;;;;;;;5.00;3.40;;;18.90;99.90;;;;;;4909026;29;20478;-82
2021/05/01 11:50:14;;;;;;;4.95;3.90;;;19.10;99.30;;;;;;4924977;29;20916;-82
2021/05/01 11:52:59;;;;;;;3.83;3.13;;;19.20;99.90;;;;;;4900827;29;20402;-83
2021/05/01 11:55:42;;;;;;;3.70;3.40;;;19.20;99.90;;;;;;4911026;29;20407;-78
2021/05/01 11:58:09;;;;;;;3.17;2.88;;;19.40;99.90;;;;;;4934589;29;20921;-78
2021/05/01 12:00:39;;;;;;;3.75;3.33;;;19.20;98.80;;;;;;4905369;29;20918;-78
2021/05/01 12:03:05;;;;;;;3.53;3.22;;;19.20;98.80;;;;;;4894149;29;20412;-78
2021/05/01 12:05:35;;;;;;;3.28;2.97;;;19.50;98.60;;;;;;4918236;28;20402;-80
2021/05/01 12:08:11;;;;;;;3.58;3.28;;;19.50;98.10;;;;;;4909218;29;20417;-79
2021/05/01 12:10:44;;;;;;;5.63;3.33;;;19.60;98.50;;;;;;4910048;29;20417;-78
2021/05/01 12:13:17;;;;;;;3.70;3.22;;;19.70;97.10;;;;;;4916017;29;20425;-82
2021/05/01 12:15:52;;;;;;;3.90;3.60;;;19.80;96.10;;;;;;4925840;29;20489;-79
2021/05/01 12:18:18;;;;;;;3.70;3.40;;;20.00;95.30;;;;;;4922692;29;20482;-81
2021/05/01 12:20:44;;;;;;;4.72;4.32;;;20.30;96.00;;;;;;4907144;29;20453;-77
2021/05/01 12:23:11;;;;;;;3.40;3.10;;;20.70;94.80;;;;;;4894829;29;21300;-81
2021/05/01 12:25:37;;;;;;;4.87;4.40;;;21.00;95.10;;;;;;4915629;29;20421;-77
2021/05/01 12:28:04;;;;;;;3.50;3.20;;;21.00;92.80;;;;;;4923400;29;20461;-79
2021/05/01 12:30:39;;;;;;;3.30;3.00;;;21.50;93.00;;;;;;4904278;29;20485;-81
2021/05/01 12:33:32;;;;;;;3.70;3.40;;;21.80;90.40;;;;;;4924616;29;20426;-78
2021/05/01 12:36:02;;;;;;;6.45;3.80;;;21.60;92.00;;;;;;4942928;29;20416;-80
2021/05/01 12:38:29;;;;;;;4.85;3.42;;;21.60;91.20;;;;;;4898337;29;20432;-77
2021/05/01 12:41:19;;;;;;;3.53;3.22;;;21.70;89.80;;;;;;4920975;29;21519;-82
2021/05/01 12:43:49;;;;;;;3.78;3.28;;;21.80;91.40;;;;;;4932512;29;20493;-77
2021/05/01 12:46:33;;;;;;;3.05;2.67;;;21.70;89.30;;;;;;4913695;29;20447;-78
2021/05/01 12:49:00;;;;;;;3.45;3.10;;;21.60;90.40;;;;;;4923128;29;20475;-77
2021/05/01 12:51:29;;;;;;;3.03;2.72;;;21.00;87.10;;;;;;4909454;29;20782;-77
2021/05/01 12:53:57;;;;;;;2.90;2.60;;;20.70;89.70;;;;;;4907934;29;20965;-78
2021/05/01 12:56:31;;;;;;;2.63;2.42;;;20.80;89.00;;;;;;4911742;29;20878;-77
2021/05/01 12:59:18;;;;;;;2.65;2.45;;;21.10;87.10;;;;;;4907025;29;21080;-84